createdAt,value
2022-08-26T00:02:23.738Z,21.88
2022-08-26T00:04:50.207Z,21.96
2022-08-26T00:07:16.758Z,21.88
2022-08-26T00:12:36.204Z,21.75
2022-08-26T00:15:05.093Z,21.74
2022-08-26T00:17:31.600Z,21.77
2022-08-26T00:19:58.049Z,21.71
2022-08-26T00:22:25.389Z,21.66
2022-08-26T00:27:48.862Z,21.62
2022-08-26T00:30:15.356Z,21.53
2022-08-26T00:32:42.039Z,21.57
2022-08-26T00:35:13.702Z,21.60
2022-08-26T00:37:42.264Z,21.54
2022-08-26T00:42:53.839Z,21.53
2022-08-26T00:45:20.328Z,21.45
2022-08-26T00:47:49.245Z,21.44
2022-08-26T00:50:17.005Z,21.40
2022-08-26T00:52:44.026Z,21.34
2022-08-26T00:57:54.684Z,21.29
2022-08-26T01:00:21.173Z,21.29
2022-08-26T01:02:48.555Z,21.30
2022-08-26T01:05:15.705Z,21.34
2022-08-26T01:07:43.561Z,21.40
2022-08-26T01:12:53.807Z,21.23
2022-08-26T01:15:21.144Z,21.23
2022-08-26T01:17:48.580Z,21.16
2022-08-26T01:20:15.972Z,21.07
2022-08-26T01:22:42.431Z,21.06
2022-08-26T01:28:04.180Z,20.98
2022-08-26T01:30:30.628Z,20.95
2022-08-26T01:32:57.900Z,20.92
2022-08-26T01:35:24.385Z,20.90
2022-08-26T01:37:50.833Z,20.93
2022-08-26T01:43:13.338Z,20.86
2022-08-26T01:45:39.823Z,20.94
2022-08-26T01:48:06.296Z,20.95
2022-08-26T01:50:33.694Z,20.89
2022-08-26T01:53:01.082Z,20.88
2022-08-26T01:58:23.483Z,20.82
2022-08-26T02:00:50.924Z,20.86
2022-08-26T02:03:17.447Z,20.80
2022-08-26T02:05:44.824Z,20.84
2022-08-26T02:08:15.322Z,20.88
2022-08-26T02:13:46.484Z,20.90
2022-08-26T02:16:14.147Z,20.94
2022-08-26T02:18:41.456Z,20.77
2022-08-26T02:21:09.406Z,20.76
2022-08-26T02:23:36.777Z,20.70
2022-08-26T02:28:48.381Z,20.73
2022-08-26T02:31:14.970Z,20.81
2022-08-26T02:33:42.939Z,20.69
2022-08-26T02:36:09.661Z,20.64
2022-08-26T02:38:39.504Z,20.57
2022-08-26T02:43:50.528Z,20.63
2022-08-26T02:46:28.047Z,20.77
2022-08-26T02:48:57.391Z,20.88
2022-08-26T02:51:25.331Z,20.82
2022-08-26T02:53:51.781Z,20.72
2022-08-26T02:59:13.202Z,20.67
2022-08-26T03:01:40.654Z,20.57
2022-08-26T03:04:08.122Z,20.53
2022-08-26T03:06:35.498Z,20.47
2022-08-26T03:09:04.238Z,20.63
2022-08-26T03:14:25.513Z,20.41
2022-08-26T03:16:53.035Z,20.37
2022-08-26T03:19:20.428Z,20.26
2022-08-26T03:21:47.791Z,20.32
2022-08-26T03:24:14.265Z,20.23
2022-08-26T03:29:35.528Z,20.25
2022-08-26T03:32:02.016Z,20.31
2022-08-26T03:34:29.405Z,20.37
2022-08-26T03:36:56.781Z,20.42
2022-08-26T03:39:24.178Z,20.34
2022-08-26T03:44:35.868Z,20.21
2022-08-26T03:47:04.523Z,20.35
2022-08-26T03:49:33.352Z,20.44
2022-08-26T03:52:01.691Z,20.45
2022-08-26T03:54:29.046Z,20.31
2022-08-26T03:59:50.815Z,20.27
2022-08-26T04:02:19.134Z,20.34
2022-08-26T04:04:45.606Z,20.50
2022-08-26T04:07:13.005Z,20.84
2022-08-26T04:09:39.466Z,20.97
2022-08-26T04:15:00.291Z,21.42
2022-08-26T04:17:26.719Z,21.56
2022-08-26T04:19:53.188Z,21.65
2022-08-26T04:22:24.872Z,21.71
2022-08-26T04:24:51.561Z,21.75
2022-08-26T04:30:02.122Z,21.42
2022-08-26T04:32:28.607Z,21.52
2022-08-26T04:34:55.970Z,21.77
2022-08-26T04:37:25.328Z,21.68
2022-08-26T04:39:53.072Z,21.50
2022-08-26T04:45:05.837Z,21.36
2022-08-26T04:47:36.517Z,21.69
2022-08-26T04:50:03.095Z,21.98
2022-08-26T04:52:30.559Z,22.21
2022-08-26T04:54:58.402Z,22.46
2022-08-26T05:00:09.770Z,22.38
2022-08-26T05:02:38.505Z,22.37
2022-08-26T05:05:06.196Z,22.44
2022-08-26T05:07:33.026Z,22.51
2022-08-26T05:09:59.775Z,22.53
2022-08-26T05:15:10.277Z,22.57
2022-08-26T05:17:37.650Z,22.63
2022-08-26T05:20:04.813Z,22.62
2022-08-26T05:22:33.876Z,22.66
2022-08-26T05:25:01.743Z,22.69
2022-08-26T05:30:13.822Z,22.73
2022-08-26T05:32:41.420Z,22.76
2022-08-26T05:35:09.647Z,22.69
2022-08-26T05:37:37.358Z,22.74
2022-08-26T05:40:05.102Z,22.87
2022-08-26T05:45:27.572Z,22.98
2022-08-26T05:47:54.092Z,22.97
2022-08-26T05:50:21.458Z,22.96
2022-08-26T05:52:50.240Z,22.98
2022-08-26T05:55:17.587Z,22.94
2022-08-26T06:00:41.637Z,22.97
2022-08-26T06:03:08.337Z,23.03
2022-08-26T06:05:38.269Z,23.05
2022-08-26T06:08:05.709Z,23.11
2022-08-26T06:10:33.736Z,23.18
2022-08-26T06:15:54.679Z,23.23
2022-08-26T06:18:22.443Z,23.27
2022-08-26T06:20:56.799Z,23.29
2022-08-26T06:23:24.951Z,23.31
2022-08-26T06:25:51.448Z,23.39
2022-08-26T06:31:14.840Z,23.45
2022-08-26T06:33:41.393Z,23.48
2022-08-26T06:36:08.810Z,23.51
2022-08-26T06:38:36.513Z,23.52
2022-08-26T06:41:03.597Z,23.58
2022-08-26T06:46:26.079Z,23.67
2022-08-26T06:48:52.649Z,23.83
2022-08-26T06:51:19.115Z,23.89
2022-08-26T06:53:49.775Z,23.95
2022-08-26T06:56:16.220Z,23.97
2022-08-26T07:01:27.186Z,24.03
2022-08-26T07:03:54.255Z,24.07
2022-08-26T07:06:23.461Z,24.08
2022-08-26T07:08:49.890Z,24.13
2022-08-26T07:11:16.427Z,24.16
2022-08-26T07:16:27.230Z,24.25
2022-08-26T07:18:55.807Z,24.26
2022-08-26T07:21:23.527Z,24.27
2022-08-26T07:23:50.247Z,24.32
2022-08-26T07:26:17.486Z,24.35
2022-08-26T07:31:42.698Z,24.40
2022-08-26T07:34:09.516Z,24.42
2022-08-26T07:36:36.172Z,24.45
2022-08-26T07:39:02.672Z,24.48
2022-08-26T07:41:31.081Z,24.50
2022-08-26T07:46:56.830Z,24.55
2022-08-26T07:49:23.450Z,24.58
2022-08-26T07:51:51.955Z,24.62
2022-08-26T07:54:19.882Z,24.61
2022-08-26T07:56:46.344Z,24.60
2022-08-26T08:02:00.400Z,24.59
2022-08-26T08:04:26.932Z,24.59
2022-08-26T08:06:54.196Z,24.63
2022-08-26T08:09:22.544Z,24.67
2022-08-26T08:11:51.381Z,24.70
2022-08-26T08:17:02.175Z,24.78
2022-08-26T08:19:36.636Z,24.83
2022-08-26T08:22:04.190Z,24.79
2022-08-26T08:24:43.425Z,24.75
2022-08-26T08:27:10.405Z,24.78
2022-08-26T08:32:21.753Z,24.82
2022-08-26T08:34:48.223Z,24.93
2022-08-26T08:37:14.618Z,25.20
2022-08-26T08:39:41.066Z,25.34
2022-08-26T08:42:07.575Z,25.49
2022-08-26T08:47:18.892Z,25.57
2022-08-26T08:49:47.121Z,25.54
2022-08-26T08:52:13.491Z,25.65
2022-08-26T08:54:40.725Z,25.64
2022-08-26T08:57:08.520Z,25.67
2022-08-26T09:02:18.917Z,25.82
2022-08-26T09:04:46.327Z,25.80
2022-08-26T09:07:12.776Z,25.86
2022-08-26T09:09:39.124Z,25.92
2022-08-26T09:12:05.487Z,25.90
2022-08-26T09:17:25.995Z,26.01
2022-08-26T09:19:53.267Z,25.56
2022-08-26T09:24:51.850Z,25.41
2022-08-26T09:27:19.407Z,25.37
2022-08-26T09:32:29.863Z,25.32
2022-08-26T09:34:56.232Z,25.32
2022-08-26T09:37:22.666Z,25.32
2022-08-26T09:39:49.079Z,25.29
2022-08-26T09:42:16.766Z,25.31
2022-08-26T09:47:27.827Z,25.23
2022-08-26T09:49:54.808Z,25.22
2022-08-26T09:52:22.086Z,25.30
2022-08-26T09:54:48.456Z,25.27
2022-08-26T09:57:15.685Z,25.25
2022-08-26T09:59:42.022Z,25.23
2022-08-26T10:02:12.293Z,25.23
2022-08-26T10:04:42.350Z,25.22
2022-08-26T10:07:12.373Z,25.22
2022-08-26T10:09:42.410Z,25.21
2022-08-26T10:12:09.033Z,25.20
2022-08-26T10:14:39.311Z,25.21
2022-08-26T10:17:06.836Z,25.20
2022-08-26T10:19:55.943Z,25.19
2022-08-26T10:22:21.891Z,25.20
2022-08-26T10:24:54.486Z,25.21
2022-08-26T10:27:21.455Z,25.20
2022-08-26T10:29:48.014Z,25.19
2022-08-26T10:32:14.881Z,25.26
2022-08-26T10:34:41.395Z,25.31
2022-08-26T10:37:13.472Z,25.30
2022-08-26T10:39:41.532Z,25.45
2022-08-26T10:42:09.895Z,25.46
2022-08-26T10:44:37.440Z,25.37
2022-08-26T10:47:08.407Z,25.32
2022-08-26T10:49:34.847Z,25.30
2022-08-26T10:52:01.337Z,25.26
2022-08-26T10:54:27.812Z,25.23
2022-08-26T10:56:55.393Z,25.23
2022-08-26T10:59:22.786Z,25.22
2022-08-26T11:01:52.636Z,25.22
2022-08-26T11:04:20.242Z,25.21
2022-08-26T11:06:50.006Z,25.21
2022-08-26T11:09:16.491Z,25.21
2022-08-26T11:11:42.961Z,25.24
2022-08-26T11:14:10.355Z,25.23
2022-08-26T11:16:42.890Z,25.25
2022-08-26T11:19:10.239Z,25.25
2022-08-26T11:21:36.758Z,25.24
2022-08-26T11:24:03.319Z,25.26
2022-08-26T11:26:43.141Z,25.28
2022-08-26T11:29:19.985Z,25.27
2022-08-26T11:31:47.532Z,25.28
2022-08-26T11:34:14.034Z,25.28
2022-08-26T11:36:40.509Z,25.27
2022-08-26T11:39:07.427Z,25.29
2022-08-26T11:41:34.823Z,25.29
2022-08-26T11:44:02.337Z,25.28
2022-08-26T11:46:29.000Z,25.28
2022-08-26T11:48:56.386Z,25.28
2022-08-26T11:51:24.378Z,25.29
2022-08-26T11:53:52.013Z,25.30
2022-08-26T11:56:19.413Z,25.30
2022-08-26T11:58:47.939Z,25.29
2022-08-26T12:01:14.435Z,25.31
2022-08-26T12:03:44.559Z,25.30
2022-08-26T12:06:12.059Z,25.29
2022-08-26T12:08:41.634Z,25.30
2022-08-26T12:11:08.132Z,25.31
2022-08-26T12:13:35.528Z,25.31
2022-08-26T12:16:04.431Z,25.31
2022-08-26T12:18:32.526Z,25.33
2022-08-26T12:21:01.182Z,25.32
2022-08-26T12:23:28.911Z,25.33
2022-08-26T12:25:55.596Z,25.33
2022-08-26T12:28:23.361Z,25.33
2022-08-26T12:30:50.732Z,25.32
2022-08-26T12:36:11.613Z,25.33
2022-08-26T12:38:39.425Z,25.33
2022-08-26T12:41:06.901Z,25.32
2022-08-26T12:43:34.381Z,25.33
2022-08-26T12:46:01.795Z,25.33
2022-08-26T12:51:13.630Z,25.33
2022-08-26T12:53:40.128Z,25.33
2022-08-26T12:56:06.634Z,25.34
2022-08-26T12:58:34.050Z,25.34
2022-08-26T13:01:00.636Z,25.34
2022-08-26T13:06:15.932Z,25.34
2022-08-26T13:08:43.713Z,25.33
2022-08-26T13:11:10.217Z,25.33
2022-08-26T13:13:37.636Z,25.35
2022-08-26T13:16:06.125Z,25.34
2022-08-26T13:21:17.495Z,25.34
2022-08-26T13:23:44.876Z,25.34
2022-08-26T13:26:11.379Z,25.34
2022-08-26T13:28:37.873Z,25.34
2022-08-26T13:31:05.413Z,25.34
2022-08-26T13:36:17.894Z,25.35
2022-08-26T13:38:45.266Z,25.35
2022-08-26T13:41:28.903Z,25.34
2022-08-26T13:43:57.052Z,25.35
2022-08-26T13:46:25.495Z,25.36
2022-08-26T13:51:35.808Z,25.35
2022-08-26T13:54:02.282Z,25.36
2022-08-26T13:56:28.790Z,25.35
2022-08-26T13:58:56.141Z,25.36
2022-08-26T14:01:22.607Z,25.35
2022-08-26T14:06:43.085Z,25.36
2022-08-26T14:09:11.448Z,25.35
2022-08-26T14:11:50.715Z,25.36
2022-08-26T14:14:21.211Z,25.36
2022-08-26T14:16:58.695Z,25.36
2022-08-26T14:22:30.682Z,25.35
2022-08-26T14:24:57.252Z,25.36
2022-08-26T14:27:23.721Z,25.36
2022-08-26T14:29:50.218Z,25.36
2022-08-26T14:32:17.898Z,25.38
2022-08-26T14:34:47.876Z,25.37
2022-08-26T14:37:15.391Z,25.37
2022-08-26T14:39:42.914Z,25.36
2022-08-26T14:42:10.296Z,25.36
2022-08-26T14:44:36.987Z,25.37
2022-08-26T14:47:04.466Z,25.38
2022-08-26T14:52:14.811Z,25.38
2022-08-26T14:54:42.204Z,25.38
2022-08-26T14:57:08.680Z,25.38
2022-08-26T14:59:35.202Z,25.39
2022-08-26T15:02:02.745Z,25.39
2022-08-26T15:07:23.081Z,25.46
2022-08-26T15:09:49.546Z,25.49
2022-08-26T15:12:16.237Z,25.51
2022-08-26T15:14:43.577Z,25.52
2022-08-26T15:17:10.100Z,25.55
2022-08-26T15:22:31.438Z,25.57
2022-08-26T15:24:57.930Z,25.59
2022-08-26T15:27:24.471Z,25.62
2022-08-26T15:29:51.061Z,25.62
2022-08-26T15:32:17.453Z,25.63
2022-08-26T15:37:30.589Z,25.66
2022-08-26T15:39:57.106Z,25.67
2022-08-26T15:42:23.664Z,25.66
2022-08-26T15:44:50.065Z,25.68
2022-08-26T15:47:17.335Z,25.69
2022-08-26T15:52:28.442Z,25.69
2022-08-26T15:54:55.778Z,25.70
2022-08-26T15:57:23.453Z,26.07
2022-08-26T15:59:51.029Z,26.20
2022-08-26T16:02:18.341Z,26.53
2022-08-26T16:07:29.370Z,26.60
2022-08-26T16:09:55.763Z,26.52
2022-08-26T16:12:22.177Z,26.63
2022-08-26T16:14:49.439Z,26.64
2022-08-26T16:17:19.193Z,26.84
2022-08-26T16:22:29.498Z,26.60
2022-08-26T16:25:00.540Z,26.71
2022-08-26T16:27:27.863Z,26.71
2022-08-26T16:29:54.282Z,26.51
2022-08-26T16:32:21.551Z,26.67
2022-08-26T16:37:42.645Z,26.89
2022-08-26T16:40:09.969Z,27.24
2022-08-26T16:42:36.455Z,26.76
2022-08-26T16:45:02.886Z,27.09
2022-08-26T16:47:30.151Z,26.96
2022-08-26T16:52:51.188Z,26.86
2022-08-26T16:55:22.029Z,26.73
2022-08-26T16:57:49.290Z,26.66
2022-08-26T17:00:15.725Z,26.88
2022-08-26T17:02:42.195Z,27.14
2022-08-26T17:08:04.120Z,26.73
2022-08-26T17:10:31.531Z,26.53
2022-08-26T17:12:57.985Z,26.55
2022-08-26T17:15:24.398Z,26.50
2022-08-26T17:17:51.645Z,26.58
2022-08-26T17:23:12.611Z,26.49
2022-08-26T17:25:39.037Z,26.38
2022-08-26T17:28:07.534Z,26.50
2022-08-26T17:30:39.816Z,26.61
2022-08-26T17:33:10.641Z,26.55
2022-08-26T17:38:33.262Z,26.67
2022-08-26T17:41:00.502Z,26.74
2022-08-26T17:43:26.919Z,26.78
2022-08-26T17:45:54.204Z,26.81
2022-08-26T17:48:20.691Z,26.58
2022-08-26T17:53:41.743Z,26.89
2022-08-26T17:56:09.131Z,26.90
2022-08-26T17:58:35.617Z,26.83
2022-08-26T18:01:02.132Z,26.88
2022-08-26T18:03:29.605Z,26.66
2022-08-26T18:08:51.020Z,26.50
2022-08-26T18:11:17.524Z,26.80
2022-08-26T18:13:46.984Z,26.52
2022-08-26T18:16:14.219Z,26.56
2022-08-26T18:18:40.692Z,26.69
2022-08-26T18:24:01.543Z,26.53
2022-08-26T18:26:28.952Z,26.48
2022-08-26T18:28:55.427Z,26.51
2022-08-26T18:31:22.880Z,26.62
2022-08-26T18:33:50.311Z,26.59
2022-08-26T18:39:10.941Z,26.55
2022-08-26T18:41:37.425Z,26.45
2022-08-26T18:44:04.862Z,26.53
2022-08-26T18:46:31.508Z,26.51
2022-08-26T18:48:58.029Z,26.48
2022-08-26T18:54:09.594Z,25.71
2022-08-26T18:56:36.098Z,25.59
2022-08-26T18:59:03.530Z,25.55
2022-08-26T19:01:31.060Z,25.48
2022-08-26T19:03:57.609Z,25.45
2022-08-26T19:09:09.027Z,25.28
2022-08-26T19:11:37.416Z,25.28
2022-08-26T19:14:10.500Z,25.26
2022-08-26T19:16:37.924Z,25.16
2022-08-26T19:19:04.444Z,25.16
2022-08-26T19:24:26.045Z,24.98
2022-08-26T19:26:57.566Z,24.94
2022-08-26T19:29:24.630Z,24.92
2022-08-26T19:31:51.186Z,24.95
2022-08-26T19:34:20.233Z,24.91
2022-08-26T19:39:32.579Z,24.75
2022-08-26T19:41:59.080Z,24.68
2022-08-26T19:44:25.574Z,24.70
2022-08-26T19:46:52.088Z,24.64
2022-08-26T19:49:18.576Z,24.58
2022-08-26T19:54:29.491Z,24.57
2022-08-26T19:56:56.899Z,24.48
2022-08-26T19:59:23.360Z,24.42
2022-08-26T20:02:00.641Z,24.45
2022-08-26T20:04:28.946Z,24.52
2022-08-26T20:09:50.545Z,24.40
2022-08-26T20:12:17.934Z,24.26
2022-08-26T20:14:45.313Z,24.20
2022-08-26T20:17:11.804Z,24.13
2022-08-26T20:19:39.196Z,24.31
2022-08-26T20:25:00.549Z,24.48
2022-08-26T20:27:27.265Z,24.84
2022-08-26T20:30:05.248Z,24.90
2022-08-26T20:32:35.603Z,25.27
2022-08-26T20:35:02.329Z,25.25
2022-08-26T20:40:14.203Z,25.25
2022-08-26T20:42:41.670Z,25.72
2022-08-26T20:45:09.218Z,25.59
2022-08-26T20:47:35.774Z,25.36
2022-08-26T20:50:02.340Z,25.29
2022-08-26T20:55:23.707Z,24.58
2022-08-26T20:57:51.164Z,24.11
2022-08-26T21:00:18.611Z,24.00
2022-08-26T21:02:48.377Z,24.38
2022-08-26T21:05:15.874Z,24.25
2022-08-26T21:10:36.769Z,24.29
2022-08-26T21:13:04.222Z,24.24
2022-08-26T21:15:31.682Z,24.37
2022-08-26T21:17:58.324Z,24.21
2022-08-26T21:20:25.770Z,24.31
2022-08-26T21:25:37.367Z,24.52
2022-08-26T21:28:04.810Z,24.58
2022-08-26T21:30:32.265Z,24.50
2022-08-26T21:32:59.682Z,24.38
2022-08-26T21:35:27.195Z,24.51
2022-08-26T21:40:39.067Z,23.51
2022-08-26T21:43:06.510Z,23.64
2022-08-26T21:45:34.002Z,24.00
2022-08-26T21:48:01.503Z,24.03
2022-08-26T21:50:28.969Z,24.22
2022-08-26T21:55:49.693Z,23.68
2022-08-26T21:58:17.343Z,23.70
2022-08-26T22:00:44.859Z,23.52
2022-08-26T22:03:12.301Z,23.49
2022-08-26T22:05:39.775Z,23.50
2022-08-26T22:10:52.373Z,23.59
2022-08-26T22:13:18.913Z,23.61
2022-08-26T22:15:46.387Z,23.70
2022-08-26T22:18:13.822Z,23.63
2022-08-26T22:20:41.259Z,23.72
2022-08-26T22:25:51.609Z,23.59
2022-08-26T22:28:19.024Z,23.51
2022-08-26T22:30:45.570Z,23.60
2022-08-26T22:33:12.991Z,23.55
2022-08-26T22:35:39.572Z,23.57
2022-08-26T22:40:52.433Z,23.80
2022-08-26T22:43:18.980Z,23.51
2022-08-26T22:45:45.568Z,23.39
2022-08-26T22:48:12.281Z,23.34
2022-08-26T22:50:39.772Z,23.44
2022-08-26T22:56:01.191Z,23.62
2022-08-26T22:58:30.962Z,23.32
2022-08-26T23:00:57.654Z,23.29
2022-08-26T23:03:27.012Z,23.45
2022-08-26T23:05:53.603Z,23.28
2022-08-26T23:11:04.955Z,23.10
2022-08-26T23:13:32.394Z,23.10
2022-08-26T23:15:58.996Z,23.10
2022-08-26T23:18:25.499Z,23.22
2022-08-26T23:20:52.019Z,23.12
2022-08-26T23:26:17.561Z,22.94
2022-08-26T23:28:44.352Z,22.78
2022-08-26T23:31:11.822Z,23.03
2022-08-26T23:33:39.273Z,22.97
2022-08-26T23:36:05.795Z,22.89
2022-08-26T23:41:26.389Z,22.76
2022-08-26T23:43:52.998Z,22.64
2022-08-26T23:46:20.476Z,22.53
2022-08-26T23:48:46.994Z,22.54
2022-08-26T23:51:14.451Z,22.56
2022-08-26T23:56:26.841Z,22.38
2022-08-26T23:58:54.378Z,22.39
